Terminal Aerodrome Forecast
Issued by NWS

Home | Current Version | Previous Version | Text Only | Print | Product List | Glossary On
Versions: 1 2 3 4 5 6 7
000
FTUS43 KGRB 222300
TAFOSH
TAF
KOSH 222328Z 2300/2324 33010KT P6SM SCT050
     FM231500 02010G17KT P6SM SCT040
      TEMPO 2316/2320 BKN040=

USA.gov is the U.S. government's official web portal to all federal, state and local government web resources and services.